Milouin — FT9009 — position and weather

sailwx.info

Track history (hours):
 
Tides and Currents Weather Stations Pressure Air Temp Water Temp Dewpoint Dewpoint Depression Visibility Wind Speed Wind Dir Waves Ship Positions

Milouin

Last reported at 2016-Jun-30 00:09 UTC. Time now 2016-Jun-30 01:34 UTC.
Position N 47°17' W 002°01'.

Length 36 m; draft 2.5 m.

Type: Ship. MMSI: 227003190.

Date/timePositionNaut miles runAvg speedWind from/ knotsBaromVisibWave heightAir tempDewpointWater temp
2016-Jun-30 00:09N 47°17' W 002°01'0 0.0
2016-Jun-29 23:32N 47°17' W 002°01'0 0.0
2016-Jun-29 22:31N 47°17' W 002°01'0 0.0
2016-Jun-29 21:33N 47°17' W 002°01'0 0.0
2016-Jun-29 20:33N 47°17' W 002°01'0 0.0
2016-Jun-29 19:33N 47°17' W 002°01'0 0.0
2016-Jun-29 18:30N 47°17' W 002°01'0 0.0
2016-Jun-29 17:32N 47°17' W 002°01'0 0.0
2016-Jun-29 16:29N 47°17' W 002°01'3 3.4
2016-Jun-29 15:33N 47°18' W 002°06'1 0.5
2016-Jun-29 14:33N 47°18' W 002°06'1 0.5
2016-Jun-29 13:33N 47°18' W 002°07'0 0.1
2016-Jun-29 12:33N 47°18' W 002°07'0 0.1
2016-Jun-29 11:33N 47°18' W 002°07'4 4.1
2016-Jun-29 10:33N 47°17' W 002°01'0 0.0
2016-Jun-29 09:34N 47°17' W 002°01'0 0.0
2016-Jun-29 08:34N 47°17' W 002°01'0 0.0
2016-Jun-29 07:33N 47°17' W 002°01'0 0.0
2016-Jun-29 06:33N 47°17' W 002°01'0 0.0
2016-Jun-29 05:33N 47°17' W 002°01'0 0.0
2016-Jun-29 04:33N 47°17' W 002°01'0 0.0
2016-Jun-29 03:33N 47°17' W 002°01'0 0.0
2016-Jun-29 02:33N 47°17' W 002°01'0 0.0
2016-Jun-29 01:33N 47°17' W 002°01'0 0.0
2016-Jun-29 00:34N 47°17' W 002°01'0 0.0
2016-Jun-28 23:33N 47°17' W 002°01'0 0.0
2016-Jun-28 22:33N 47°17' W 002°01'0 0.0
2016-Jun-28 21:33N 47°17' W 002°01'0 0.0
2016-Jun-28 20:34N 47°17' W 002°01'0 0.0
2016-Jun-28 19:33N 47°17' W 002°01'0 0.0
2016-Jun-28 18:33N 47°17' W 002°01'0 0.0
2016-Jun-28 17:33N 47°17' W 002°01'0 0.0
2016-Jun-28 16:33N 47°17' W 002°01'0 0.0
2016-Jun-28 15:33N 47°17' W 002°01'0 0.0
2016-Jun-28 14:33N 47°17' W 002°01'0 0.0
2016-Jun-28 13:33N 47°17' W 002°01'0 0.0
2016-Jun-28 12:33N 47°17' W 002°01'0 0.0
2016-Jun-28 11:33N 47°17' W 002°01'0 0.0
2016-Jun-28 10:33N 47°17' W 002°01'0 0.0
2016-Jun-28 09:34N 47°17' W 002°01'0 0.0
2016-Jun-28 08:33N 47°17' W 002°01'0 0.0
2016-Jun-28 07:33N 47°17' W 002°01'0 0.0
2016-Jun-28 06:33N 47°17' W 002°01'0 0.0
2016-Jun-28 04:33N 47°17' W 002°01'0 0.0
2016-Jun-28 03:33N 47°17' W 002°01'0 0.0
2016-Jun-28 02:33N 47°17' W 002°01'0 0.0
2016-Jun-28 01:33N 47°17' W 002°01'0 0.0
2016-Jun-28 00:33N 47°17' W 002°01'0 0.0
2016-Jun-27 23:33N 47°17' W 002°01'0 0.0
2016-Jun-27 22:34N 47°17' W 002°01'0 0.0
2016-Jun-27 21:33N 47°17' W 002°01'0 0.0
2016-Jun-27 20:34N 47°17' W 002°01'0 0.0
2016-Jun-27 19:33N 47°17' W 002°01'0 0.0
2016-Jun-27 18:33N 47°17' W 002°01'0 0.0
2016-Jun-27 17:33N 47°17' W 002°01'0 0.0
2016-Jun-27 16:33N 47°17' W 002°01'0 0.0
2016-Jun-27 15:33N 47°17' W 002°01'3 3.4
2016-Jun-27 14:33N 47°18' W 002°06'0 0.1
2016-Jun-27 13:33N 47°18' W 002°06'0 0.1
2016-Jun-27 12:33N 47°18' W 002°06'0 0.1
2016-Jun-27 11:33N 47°18' W 002°06'0 0.0
2016-Jun-27 10:33N 47°18' W 002°06'0 0.0
2016-Jun-27 09:33N 47°18' W 002°06'0 0.0
2016-Jun-27 08:33N 47°18' W 002°06'2 2.0
2016-Jun-27 07:34N 47°18' W 002°03'1 1.4
2016-Jun-27 06:31N 47°17' W 002°01'0 0.0
2016-Jun-27 05:33N 47°17' W 002°01'0 0.0
2016-Jun-27 04:33N 47°17' W 002°01'0 0.0
2016-Jun-27 03:33N 47°17' W 002°01'0 0.0
2016-Jun-27 02:33N 47°17' W 002°01'0 0.0
2016-Jun-27 01:20N 47°17' W 002°01'0 0.0
2016-Jun-27 00:32N 47°17' W 002°01'0 0.0
2016-Jun-26 23:33N 47°17' W 002°01'0 0.0
2016-Jun-26 22:31N 47°17' W 002°01'0 0.0
2016-Jun-26 21:31N 47°17' W 002°01'0 0.0
2016-Jun-26 20:33N 47°17' W 002°01'0 0.0
2016-Jun-26 19:33N 47°17' W 002°01'0 0.0
2016-Jun-26 18:32N 47°17' W 002°01'0 0.0
2016-Jun-26 17:29N 47°17' W 002°01'0 0.0
2016-Jun-26 16:31N 47°17' W 002°01'0 0.0
2016-Jun-26 15:33N 47°17' W 002°01'2 2.3
2016-Jun-26 14:33N 47°18' W 002°04'1 1.1
2016-Jun-26 13:33N 47°18' W 002°06'1 1.3
2016-Jun-26 12:33N 47°18' W 002°08'0 0.1
2016-Jun-26 11:33N 47°18' W 002°08'0 0.0
2016-Jun-26 10:33N 47°18' W 002°08'0 0.0
2016-Jun-26 09:33N 47°18' W 002°08'0 0.1
2016-Jun-26 08:33N 47°18' W 002°07'4 4.2
2016-Jun-26 07:31N 47°17' W 002°01'0 0.0
2016-Jun-26 06:33N 47°17' W 002°01'0 0.0
2016-Jun-26 05:33N 47°17' W 002°01'0 0.0
2016-Jun-26 04:33N 47°17' W 002°01'0 0.0
2016-Jun-26 03:33N 47°17' W 002°01'0 0.0
2016-Jun-26 02:33N 47°17' W 002°01'0 0.0
2016-Jun-26 01:32N 47°17' W 002°01'0 0.0
2016-Jun-26 00:27N 47°17' W 002°01'0 0.0
2016-Jun-25 23:31N 47°17' W 002°01'0 0.0
2016-Jun-25 22:31N 47°17' W 002°01'0 0.0
2016-Jun-25 21:29N 47°17' W 002°01'0 0.0
2016-Jun-25 20:33N 47°17' W 002°01'0 0.0
2016-Jun-25 19:33N 47°17' W 002°01'0 0.0
2016-Jun-25 18:33N 47°17' W 002°01'0 0.0
2016-Jun-25 17:33N 47°17' W 002°01'0 0.0
2016-Jun-25 16:21N 47°17' W 002°01'0 0.0
2016-Jun-25 15:33N 47°17' W 002°01'0 0.0
2016-Jun-25 14:27N 47°17' W 002°01'1 1.4
2016-Jun-25 13:33N 47°18' W 002°03'1 0.6
2016-Jun-25 12:33N 47°18' W 002°04'0 0.3
2016-Jun-25 11:33N 47°18' W 002°04'0 0.2
2016-Jun-25 10:33N 47°18' W 002°04'1 1.5
2016-Jun-25 09:33N 47°18' W 002°06'1 1.3
2016-Jun-25 08:33N 47°18' W 002°04'0 0.1
2016-Jun-25 07:33N 47°18' W 002°04'0 0.0
2016-Jun-25 06:33N 47°18' W 002°04'2 2.2
2016-Jun-25 05:33N 47°17' W 002°01'0 0.0
2016-Jun-25 04:33N 47°17' W 002°01'0 0.0
2016-Jun-25 03:33N 47°17' W 002°01'0 0.0
2016-Jun-25 02:33N 47°17' W 002°01'0 0.0
2016-Jun-25 01:20N 47°17' W 002°01'0 0.0
2016-Jun-25 00:30N 47°17' W 002°01'0 0.0
2016-Jun-24 23:29N 47°17' W 002°01'0 0.0
2016-Jun-24 22:17N 47°17' W 002°01'0 0.0
2016-Jun-24 21:33N 47°17' W 002°01'0 0.0
2016-Jun-24 20:33N 47°17' W 002°01'0 0.0
2016-Jun-24 19:18N 47°17' W 002°01'0 0.0
2016-Jun-24 18:33N 47°17' W 002°01'0 0.0
2016-Jun-24 17:31N 47°17' W 002°01'0 0.0
2016-Jun-24 16:29N 47°17' W 002°01'0 0.0
2016-Jun-24 14:21N 47°17' W 002°01'0 0.0
2016-Jun-24 13:07N 47°17' W 002°01'2 3.9
2016-Jun-24 12:33N 47°18' W 002°04'0 0.1
2016-Jun-24 11:34N 47°18' W 002°04'1 1.2
2016-Jun-24 10:34N 47°18' W 002°06'0 0.1
2016-Jun-24 09:33N 47°18' W 002°06'0 0.0
2016-Jun-24 08:33N 47°18' W 002°06'7 7.0
2016-Jun-24 07:34N 47°17' W 001°56'8 2.7
2016-Jun-24 04:33N 47°12' W 001°46'0 0.0
2016-Jun-24 03:33N 47°12' W 001°46'0 0.0
2016-Jun-24 02:33N 47°12' W 001°46'0 0.0
2016-Jun-24 01:33N 47°12' W 001°46'0 0.0
2016-Jun-24 00:33N 47°12' W 001°46'0 0.0
2016-Jun-23 23:33N 47°12' W 001°46'0 0.0
2016-Jun-23 22:33N 47°12' W 001°46'0 0.0
2016-Jun-23 21:33N 47°12' W 001°46'0 0.0
2016-Jun-23 20:33N 47°12' W 001°46'0 0.0
2016-Jun-23 19:33N 47°12' W 001°46'0 0.0
2016-Jun-23 18:33N 47°12' W 001°46'0 0.0
2016-Jun-23 17:33N 47°12' W 001°46'0 0.0
2016-Jun-23 16:33N 47°12' W 001°46'0 0.0
2016-Jun-23 15:33N 47°12' W 001°46'0 0.0
2016-Jun-23 14:33N 47°12' W 001°46'0 0.0
2016-Jun-23 13:33N 47°12' W 001°46'0 0.0
2016-Jun-23 12:33N 47°12' W 001°46'0 0.0
2016-Jun-23 11:33N 47°12' W 001°46'0 0.0
2016-Jun-23 10:33N 47°12' W 001°46'0 0.0
2016-Jun-23 09:33N 47°12' W 001°46'0 0.0
2016-Jun-23 08:33N 47°12' W 001°46'0 0.0
2016-Jun-23 07:33N 47°12' W 001°46'0 0.0
2016-Jun-23 05:33N 47°12' W 001°46'0 0.0
2016-Jun-23 04:33N 47°12' W 001°46'0 0.0
2016-Jun-23 03:33N 47°12' W 001°46'0 0.0
2016-Jun-23 02:33N 47°12' W 001°46'0 0.0
2016-Jun-23 01:33N 47°12' W 001°46'0 0.0
2016-Jun-23 00:33N 47°12' W 001°46'0 0.0
2016-Jun-22 23:33N 47°12' W 001°46'0 0.0
2016-Jun-22 22:33N 47°12' W 001°46'0 0.0
2016-Jun-22 21:33N 47°12' W 001°46'0 0.0
2016-Jun-22 20:33N 47°12' W 001°46'0 0.0
2016-Jun-22 19:33N 47°12' W 001°46'0 0.0
2016-Jun-22 18:33N 47°12' W 001°46'0 0.0
2016-Jun-22 17:33N 47°12' W 001°46'0 0.0
2016-Jun-22 16:33N 47°12' W 001°46'5 5.5
2016-Jun-22 15:33N 47°12' W 001°38'0 0.5
2016-Jun-22 14:34N 47°12' W 001°37'6 5.9
2016-Jun-22 13:33N 47°12' W 001°46'2 1.9
2016-Jun-22 12:34N 47°13' W 001°48'2 2.2
2016-Jun-22 11:34N 47°15' W 001°51'0 0.0
2016-Jun-22 10:33N 47°15' W 001°51'0 0.2
2016-Jun-22 09:33N 47°14' W 001°51'0 0.2
2016-Jun-22 08:34N 47°15' W 001°51'1 0.7
2016-Jun-22 07:33N 47°14' W 001°50'0 0.1
2016-Jun-22 06:34N 47°14' W 001°50'0 0.1
2016-Jun-22 05:33N 47°14' W 001°50'4 3.6
2016-Jun-22 04:33N 47°12' W 001°46'0 0.0
2016-Jun-22 03:33N 47°12' W 001°46'0 0.0
2016-Jun-22 02:33N 47°12' W 001°46'0 0.0
2016-Jun-22 01:33N 47°12' W 001°46'0 0.0
2016-Jun-22 00:33N 47°12' W 001°46'0 0.0
2016-Jun-21 23:34N 47°12' W 001°46'0 0.0
2016-Jun-21 22:34N 47°12' W 001°46'0 0.0
2016-Jun-21 21:33N 47°12' W 001°46'0 0.0
2016-Jun-21 20:33N 47°12' W 001°46'0 0.0
2016-Jun-21 19:33N 47°12' W 001°46'0 0.0
2016-Jun-21 18:33N 47°12' W 001°46'0 0.0
2016-Jun-21 17:34N 47°12' W 001°46'0 0.0
2016-Jun-21 16:33N 47°12' W 001°46'0 0.0
2016-Jun-21 15:33N 47°12' W 001°46'0 0.0
2016-Jun-21 14:33N 47°12' W 001°46'0 0.0
2016-Jun-21 13:33N 47°12' W 001°46'0 0.0
2016-Jun-21 12:33N 47°12' W 001°46'0 0.0
2016-Jun-21 11:34N 47°12' W 001°46'2 1.6
2016-Jun-21 10:33N 47°13' W 001°48'2 2.4
2016-Jun-21 09:34N 47°15' W 001°51'0 0.1
2016-Jun-21 08:33N 47°15' W 001°51'0 0.1
2016-Jun-21 07:33N 47°15' W 001°51'4 2.0
2016-Jun-21 05:33N 47°12' W 001°46'0 0.0
2016-Jun-21 04:33N 47°12' W 001°46'0 0.0
2016-Jun-21 03:33N 47°12' W 001°46'0 0.0
2016-Jun-21 02:33N 47°12' W 001°46'0 0.0
2016-Jun-21 01:34N 47°12' W 001°46'0 0.0
2016-Jun-21 00:33N 47°12' W 001°46'0 0.0
2016-Jun-20 23:33N 47°12' W 001°46'0 0.0
2016-Jun-20 22:33N 47°12' W 001°46'0 0.0
2016-Jun-20 21:33N 47°12' W 001°46'0 0.0
2016-Jun-20 20:33N 47°12' W 001°46'0 0.0
2016-Jun-20 19:33N 47°12' W 001°46'0 0.0
2016-Jun-20 18:33N 47°12' W 001°46'0 0.0
2016-Jun-20 17:33N 47°12' W 001°46'0 0.0
2016-Jun-20 16:33N 47°12' W 001°46'0 0.0
2016-Jun-20 15:33N 47°12' W 001°46'0 0.0
2016-Jun-20 14:34N 47°12' W 001°46'0 0.0
2016-Jun-20 13:33N 47°12' W 001°46'0 0.0
2016-Jun-20 12:33N 47°12' W 001°46'1 0.8
2016-Jun-20 11:33N 47°13' W 001°47'3 3.2
2016-Jun-20 10:33N 47°15' W 001°51'0 0.3
2016-Jun-20 09:33N 47°14' W 001°50'0 0.3
2016-Jun-20 08:33N 47°15' W 001°51'0 0.3
2016-Jun-20 07:34N 47°14' W 001°50'0 0.1
2016-Jun-20 06:33N 47°14' W 001°50'0 0.3
2016-Jun-20 05:34N 47°15' W 001°51'4 4.1
2016-Jun-20 04:33N 47°12' W 001°46'0 0.0
2016-Jun-20 03:33N 47°12' W 001°46'0 0.0
2016-Jun-20 02:33N 47°12' W 001°46'0 0.0
2016-Jun-20 01:33N 47°12' W 001°46'0 0.0
2016-Jun-20 00:33N 47°12' W 001°46'  
Track history (hours):
 
Tides and Currents Weather Stations Pressure Air Temp Water Temp Dewpoint Dewpoint Depression Visibility Wind Speed Wind Dir Waves Ship Positions

Milouin

Last reported at 2016-Jun-30 00:09 UTC. Time now 2016-Jun-30 01:34 UTC.
Position N 47°17' W 002°01'.

Length 36 m; draft 2.5 m.

Type: Ship. MMSI: 227003190.

Date/timePositionNaut miles runAvg speedWind from/ knotsBaromVisibWave heightAir tempDewpointWater temp
2016-Jun-30 00:09N 47°17' W 002°01'0 0.0
2016-Jun-29 23:32N 47°17' W 002°01'0 0.0
2016-Jun-29 22:31N 47°17' W 002°01'0 0.0
2016-Jun-29 21:33N 47°17' W 002°01'0 0.0
2016-Jun-29 20:33N 47°17' W 002°01'0 0.0
2016-Jun-29 19:33N 47°17' W 002°01'0 0.0
2016-Jun-29 18:30N 47°17' W 002°01'0 0.0
2016-Jun-29 17:32N 47°17' W 002°01'0 0.0
2016-Jun-29 16:29N 47°17' W 002°01'3 3.4
2016-Jun-29 15:33N 47°18' W 002°06'1 0.5
2016-Jun-29 14:33N 47°18' W 002°06'1 0.5
2016-Jun-29 13:33N 47°18' W 002°07'0 0.1
2016-Jun-29 12:33N 47°18' W 002°07'0 0.1
2016-Jun-29 11:33N 47°18' W 002°07'4 4.1
2016-Jun-29 10:33N 47°17' W 002°01'0 0.0
2016-Jun-29 09:34N 47°17' W 002°01'0 0.0
2016-Jun-29 08:34N 47°17' W 002°01'0 0.0
2016-Jun-29 07:33N 47°17' W 002°01'0 0.0
2016-Jun-29 06:33N 47°17' W 002°01'0 0.0
2016-Jun-29 05:33N 47°17' W 002°01'0 0.0
2016-Jun-29 04:33N 47°17' W 002°01'0 0.0
2016-Jun-29 03:33N 47°17' W 002°01'0 0.0
2016-Jun-29 02:33N 47°17' W 002°01'0 0.0
2016-Jun-29 01:33N 47°17' W 002°01'0 0.0
2016-Jun-29 00:34N 47°17' W 002°01'0 0.0
2016-Jun-28 23:33N 47°17' W 002°01'0 0.0
2016-Jun-28 22:33N 47°17' W 002°01'0 0.0
2016-Jun-28 21:33N 47°17' W 002°01'0 0.0
2016-Jun-28 20:34N 47°17' W 002°01'0 0.0
2016-Jun-28 19:33N 47°17' W 002°01'0 0.0
2016-Jun-28 18:33N 47°17' W 002°01'0 0.0
2016-Jun-28 17:33N 47°17' W 002°01'0 0.0
2016-Jun-28 16:33N 47°17' W 002°01'0 0.0
2016-Jun-28 15:33N 47°17' W 002°01'0 0.0
2016-Jun-28 14:33N 47°17' W 002°01'0 0.0
2016-Jun-28 13:33N 47°17' W 002°01'0 0.0
2016-Jun-28 12:33N 47°17' W 002°01'0 0.0
2016-Jun-28 11:33N 47°17' W 002°01'0 0.0
2016-Jun-28 10:33N 47°17' W 002°01'0 0.0
2016-Jun-28 09:34N 47°17' W 002°01'0 0.0
2016-Jun-28 08:33N 47°17' W 002°01'0 0.0
2016-Jun-28 07:33N 47°17' W 002°01'0 0.0
2016-Jun-28 06:33N 47°17' W 002°01'0 0.0
2016-Jun-28 04:33N 47°17' W 002°01'0 0.0
2016-Jun-28 03:33N 47°17' W 002°01'0 0.0
2016-Jun-28 02:33N 47°17' W 002°01'0 0.0
2016-Jun-28 01:33N 47°17' W 002°01'0 0.0
2016-Jun-28 00:33N 47°17' W 002°01'0 0.0
2016-Jun-27 23:33N 47°17' W 002°01'0 0.0
2016-Jun-27 22:34N 47°17' W 002°01'0 0.0
2016-Jun-27 21:33N 47°17' W 002°01'0 0.0
2016-Jun-27 20:34N 47°17' W 002°01'0 0.0
2016-Jun-27 19:33N 47°17' W 002°01'0 0.0
2016-Jun-27 18:33N 47°17' W 002°01'0 0.0
2016-Jun-27 17:33N 47°17' W 002°01'0 0.0
2016-Jun-27 16:33N 47°17' W 002°01'0 0.0
2016-Jun-27 15:33N 47°17' W 002°01'3 3.4
2016-Jun-27 14:33N 47°18' W 002°06'0 0.1
2016-Jun-27 13:33N 47°18' W 002°06'0 0.1
2016-Jun-27 12:33N 47°18' W 002°06'0 0.1
2016-Jun-27 11:33N 47°18' W 002°06'0 0.0
2016-Jun-27 10:33N 47°18' W 002°06'0 0.0
2016-Jun-27 09:33N 47°18' W 002°06'0 0.0
2016-Jun-27 08:33N 47°18' W 002°06'2 2.0
2016-Jun-27 07:34N 47°18' W 002°03'1 1.4
2016-Jun-27 06:31N 47°17' W 002°01'0 0.0
2016-Jun-27 05:33N 47°17' W 002°01'0 0.0
2016-Jun-27 04:33N 47°17' W 002°01'0 0.0
2016-Jun-27 03:33N 47°17' W 002°01'0 0.0
2016-Jun-27 02:33N 47°17' W 002°01'0 0.0
2016-Jun-27 01:20N 47°17' W 002°01'0 0.0
2016-Jun-27 00:32N 47°17' W 002°01'0 0.0
2016-Jun-26 23:33N 47°17' W 002°01'0 0.0
2016-Jun-26 22:31N 47°17' W 002°01'0 0.0
2016-Jun-26 21:31N 47°17' W 002°01'0 0.0
2016-Jun-26 20:33N 47°17' W 002°01'0 0.0
2016-Jun-26 19:33N 47°17' W 002°01'0 0.0
2016-Jun-26 18:32N 47°17' W 002°01'0 0.0
2016-Jun-26 17:29N 47°17' W 002°01'0 0.0
2016-Jun-26 16:31N 47°17' W 002°01'0 0.0
2016-Jun-26 15:33N 47°17' W 002°01'2 2.3
2016-Jun-26 14:33N 47°18' W 002°04'1 1.1
2016-Jun-26 13:33N 47°18' W 002°06'1 1.3
2016-Jun-26 12:33N 47°18' W 002°08'0 0.1
2016-Jun-26 11:33N 47°18' W 002°08'0 0.0
2016-Jun-26 10:33N 47°18' W 002°08'0 0.0
2016-Jun-26 09:33N 47°18' W 002°08'0 0.1
2016-Jun-26 08:33N 47°18' W 002°07'4 4.2
2016-Jun-26 07:31N 47°17' W 002°01'0 0.0
2016-Jun-26 06:33N 47°17' W 002°01'0 0.0
2016-Jun-26 05:33N 47°17' W 002°01'0 0.0
2016-Jun-26 04:33N 47°17' W 002°01'0 0.0
2016-Jun-26 03:33N 47°17' W 002°01'0 0.0
2016-Jun-26 02:33N 47°17' W 002°01'0 0.0
2016-Jun-26 01:32N 47°17' W 002°01'0 0.0
2016-Jun-26 00:27N 47°17' W 002°01'0 0.0
2016-Jun-25 23:31N 47°17' W 002°01'0 0.0
2016-Jun-25 22:31N 47°17' W 002°01'0 0.0
2016-Jun-25 21:29N 47°17' W 002°01'0 0.0
2016-Jun-25 20:33N 47°17' W 002°01'0 0.0
2016-Jun-25 19:33N 47°17' W 002°01'0 0.0
2016-Jun-25 18:33N 47°17' W 002°01'0 0.0
2016-Jun-25 17:33N 47°17' W 002°01'0 0.0
2016-Jun-25 16:21N 47°17' W 002°01'0 0.0
2016-Jun-25 15:33N 47°17' W 002°01'0 0.0
2016-Jun-25 14:27N 47°17' W 002°01'1 1.4
2016-Jun-25 13:33N 47°18' W 002°03'1 0.6
2016-Jun-25 12:33N 47°18' W 002°04'0 0.3
2016-Jun-25 11:33N 47°18' W 002°04'0 0.2
2016-Jun-25 10:33N 47°18' W 002°04'1 1.5
2016-Jun-25 09:33N 47°18' W 002°06'1 1.3
2016-Jun-25 08:33N 47°18' W 002°04'0 0.1
2016-Jun-25 07:33N 47°18' W 002°04'0 0.0
2016-Jun-25 06:33N 47°18' W 002°04'2 2.2
2016-Jun-25 05:33N 47°17' W 002°01'0 0.0
2016-Jun-25 04:33N 47°17' W 002°01'0 0.0
2016-Jun-25 03:33N 47°17' W 002°01'0 0.0
2016-Jun-25 02:33N 47°17' W 002°01'0 0.0
2016-Jun-25 01:20N 47°17' W 002°01'0 0.0
2016-Jun-25 00:30N 47°17' W 002°01'0 0.0
2016-Jun-24 23:29N 47°17' W 002°01'0 0.0
2016-Jun-24 22:17N 47°17' W 002°01'0 0.0
2016-Jun-24 21:33N 47°17' W 002°01'0 0.0
2016-Jun-24 20:33N 47°17' W 002°01'0 0.0
2016-Jun-24 19:18N 47°17' W 002°01'0 0.0
2016-Jun-24 18:33N 47°17' W 002°01'0 0.0
2016-Jun-24 17:31N 47°17' W 002°01'0 0.0
2016-Jun-24 16:29N 47°17' W 002°01'0 0.0
2016-Jun-24 14:21N 47°17' W 002°01'0 0.0
2016-Jun-24 13:07N 47°17' W 002°01'2 3.9
2016-Jun-24 12:33N 47°18' W 002°04'0 0.1
2016-Jun-24 11:34N 47°18' W 002°04'1 1.2
2016-Jun-24 10:34N 47°18' W 002°06'0 0.1
2016-Jun-24 09:33N 47°18' W 002°06'0 0.0
2016-Jun-24 08:33N 47°18' W 002°06'7 7.0
2016-Jun-24 07:34N 47°17' W 001°56'8 2.7
2016-Jun-24 04:33N 47°12' W 001°46'0 0.0
2016-Jun-24 03:33N 47°12' W 001°46'0 0.0
2016-Jun-24 02:33N 47°12' W 001°46'0 0.0
2016-Jun-24 01:33N 47°12' W 001°46'0 0.0
2016-Jun-24 00:33N 47°12' W 001°46'0 0.0
2016-Jun-23 23:33N 47°12' W 001°46'0 0.0
2016-Jun-23 22:33N 47°12' W 001°46'0 0.0
2016-Jun-23 21:33N 47°12' W 001°46'0 0.0
2016-Jun-23 20:33N 47°12' W 001°46'0 0.0
2016-Jun-23 19:33N 47°12' W 001°46'0 0.0
2016-Jun-23 18:33N 47°12' W 001°46'0 0.0
2016-Jun-23 17:33N 47°12' W 001°46'0 0.0
2016-Jun-23 16:33N 47°12' W 001°46'0 0.0
2016-Jun-23 15:33N 47°12' W 001°46'0 0.0
2016-Jun-23 14:33N 47°12' W 001°46'0 0.0
2016-Jun-23 13:33N 47°12' W 001°46'0 0.0
2016-Jun-23 12:33N 47°12' W 001°46'0 0.0
2016-Jun-23 11:33N 47°12' W 001°46'0 0.0
2016-Jun-23 10:33N 47°12' W 001°46'0 0.0
2016-Jun-23 09:33N 47°12' W 001°46'0 0.0
2016-Jun-23 08:33N 47°12' W 001°46'0 0.0
2016-Jun-23 07:33N 47°12' W 001°46'0 0.0
2016-Jun-23 05:33N 47°12' W 001°46'0 0.0
2016-Jun-23 04:33N 47°12' W 001°46'0 0.0
2016-Jun-23 03:33N 47°12' W 001°46'0 0.0
2016-Jun-23 02:33N 47°12' W 001°46'0 0.0
2016-Jun-23 01:33N 47°12' W 001°46'0 0.0
2016-Jun-23 00:33N 47°12' W 001°46'0 0.0
2016-Jun-22 23:33N 47°12' W 001°46'0 0.0
2016-Jun-22 22:33N 47°12' W 001°46'0 0.0
2016-Jun-22 21:33N 47°12' W 001°46'0 0.0
2016-Jun-22 20:33N 47°12' W 001°46'0 0.0
2016-Jun-22 19:33N 47°12' W 001°46'0 0.0
2016-Jun-22 18:33N 47°12' W 001°46'0 0.0
2016-Jun-22 17:33N 47°12' W 001°46'0 0.0
2016-Jun-22 16:33N 47°12' W 001°46'5 5.5
2016-Jun-22 15:33N 47°12' W 001°38'0 0.5
2016-Jun-22 14:34N 47°12' W 001°37'6 5.9
2016-Jun-22 13:33N 47°12' W 001°46'2 1.9
2016-Jun-22 12:34N 47°13' W 001°48'2 2.2
2016-Jun-22 11:34N 47°15' W 001°51'0 0.0
2016-Jun-22 10:33N 47°15' W 001°51'0 0.2
2016-Jun-22 09:33N 47°14' W 001°51'0 0.2
2016-Jun-22 08:34N 47°15' W 001°51'1 0.7
2016-Jun-22 07:33N 47°14' W 001°50'0 0.1
2016-Jun-22 06:34N 47°14' W 001°50'0 0.1
2016-Jun-22 05:33N 47°14' W 001°50'4 3.6
2016-Jun-22 04:33N 47°12' W 001°46'0 0.0
2016-Jun-22 03:33N 47°12' W 001°46'0 0.0
2016-Jun-22 02:33N 47°12' W 001°46'0 0.0
2016-Jun-22 01:33N 47°12' W 001°46'0 0.0
2016-Jun-22 00:33N 47°12' W 001°46'0 0.0
2016-Jun-21 23:34N 47°12' W 001°46'0 0.0
2016-Jun-21 22:34N 47°12' W 001°46'0 0.0
2016-Jun-21 21:33N 47°12' W 001°46'0 0.0
2016-Jun-21 20:33N 47°12' W 001°46'0 0.0
2016-Jun-21 19:33N 47°12' W 001°46'0 0.0
2016-Jun-21 18:33N 47°12' W 001°46'0 0.0
2016-Jun-21 17:34N 47°12' W 001°46'0 0.0
2016-Jun-21 16:33N 47°12' W 001°46'0 0.0
2016-Jun-21 15:33N 47°12' W 001°46'0 0.0
2016-Jun-21 14:33N 47°12' W 001°46'0 0.0
2016-Jun-21 13:33N 47°12' W 001°46'0 0.0
2016-Jun-21 12:33N 47°12' W 001°46'0 0.0
2016-Jun-21 11:34N 47°12' W 001°46'2 1.6
2016-Jun-21 10:33N 47°13' W 001°48'2 2.4
2016-Jun-21 09:34N 47°15' W 001°51'0 0.1
2016-Jun-21 08:33N 47°15' W 001°51'0 0.1
2016-Jun-21 07:33N 47°15' W 001°51'4 2.0
2016-Jun-21 05:33N 47°12' W 001°46'0 0.0
2016-Jun-21 04:33N 47°12' W 001°46'0 0.0
2016-Jun-21 03:33N 47°12' W 001°46'0 0.0
2016-Jun-21 02:33N 47°12' W 001°46'0 0.0
2016-Jun-21 01:34N 47°12' W 001°46'0 0.0
2016-Jun-21 00:33N 47°12' W 001°46'0 0.0
2016-Jun-20 23:33N 47°12' W 001°46'0 0.0
2016-Jun-20 22:33N 47°12' W 001°46'0 0.0
2016-Jun-20 21:33N 47°12' W 001°46'0 0.0
2016-Jun-20 20:33N 47°12' W 001°46'0 0.0
2016-Jun-20 19:33N 47°12' W 001°46'0 0.0
2016-Jun-20 18:33N 47°12' W 001°46'0 0.0
2016-Jun-20 17:33N 47°12' W 001°46'0 0.0
2016-Jun-20 16:33N 47°12' W 001°46'0 0.0
2016-Jun-20 15:33N 47°12' W 001°46'0 0.0
2016-Jun-20 14:34N 47°12' W 001°46'0 0.0
2016-Jun-20 13:33N 47°12' W 001°46'0 0.0
2016-Jun-20 12:33N 47°12' W 001°46'1 0.8
2016-Jun-20 11:33N 47°13' W 001°47'3 3.2
2016-Jun-20 10:33N 47°15' W 001°51'0 0.3
2016-Jun-20 09:33N 47°14' W 001°50'0 0.3
2016-Jun-20 08:33N 47°15' W 001°51'0 0.3
2016-Jun-20 07:34N 47°14' W 001°50'0 0.1
2016-Jun-20 06:33N 47°14' W 001°50'0 0.3
2016-Jun-20 05:34N 47°15' W 001°51'4 4.1
2016-Jun-20 04:33N 47°12' W 001°46'0 0.0
2016-Jun-20 03:33N 47°12' W 001°46'0 0.0
2016-Jun-20 02:33N 47°12' W 001°46'0 0.0
2016-Jun-20 01:33N 47°12' W 001°46'0 0.0
2016-Jun-20 00:33N 47°12' W 001°46'  

Dump ship's entire track history